Stations météo

Publicité
Coventry/Coundon, Grande-Bretagne (99070): Température de l'air & dewpoint: 04.08.2020 00:00:00 - 10.08.2020 00:00:00 (BST)Coventry/Coundon, Grande-Bretagne (99070): Température de l'air -20cm & Température de l'air -100cm: 04.08.2020 00:00:00 - 10.08.2020 00:00:00 (BST)Coventry/Coundon, Grande-Bretagne (99070): Vitesse du vent & gusts: 04.08.2020 00:00:00 - 10.08.2020 00:00:00 (BST)Coventry/Coundon, Grande-Bretagne (99070): Direction du vent: 04.08.2020 00:00:00 - 10.08.2020 00:00:00 (BST)Coventry/Coundon, Grande-Bretagne (99070): Ensoleillement: 04.08.2020 00:00:00 - 10.08.2020 00:00:00 (BST)Coventry/Coundon, Grande-Bretagne (99070): Quantités de précipitations: 04.08.2020 00:00:00 - 10.08.2020 00:00:00 (BST)
Date & Time tt [°C] td [°C] tt -20cm [°C] tt -100cm [°C] ff [km/h] ff [knt] fx [km/h] fx [knt] dd sd [min] rr [mm]
10.08.2020 00:00:00 17,6 15,6 - - 13 7 - - NNE 0 0,0
09.08.2020 23:00:00 18,3 15,6 - - 15 8 - - NNE 0 0,0
09.08.2020 22:00:00 19,2 15,7 - - 9 5 - - N 0 0,0
09.08.2020 21:00:00 20,3 15,9 - - 15 8 - - NNE 0 0,0
09.08.2020 20:00:00 21,7 16,1 - - 15 8 - - NNE 24 0,0
09.08.2020 19:00:00 24,0 16,9 - - 15 8 - - NE 60 0,0
09.08.2020 18:00:00 25,6 17,0 - - 13 7 - - NE 60 0,0
09.08.2020 17:00:00 25,9 18,0 - - 13 7 - - ENE 60 0,0
09.08.2020 16:00:00 24,5 16,0 - - 15 8 - - ENE 54 0,0
09.08.2020 15:00:00 23,8 16,6 - - 13 7 - - NE 60 0,0
09.08.2020 14:00:00 22,1 15,9 - - 15 8 - - NE 60 0,0
09.08.2020 13:00:00 21,2 16,4 - - 13 7 - - NE 18 0,0
09.08.2020 12:00:00 18,1 14,6 - - 13 7 - - NE 0 0,0
09.08.2020 11:00:00 16,7 14,4 - - 15 8 - - NE 0 0,0
09.08.2020 10:00:00 15,8 14,1 18,4 16,2 13 7 - - NE 0 0,0
09.08.2020 09:00:00 15,2 13,9 - - 15 8 - - NE 0 0,0
09.08.2020 08:00:00 14,7 13,7 - - 18 10 - - ENE 0 0,0
09.08.2020 07:00:00 14,6 13,7 - - 11 6 - - NE 0 0,0
09.08.2020 06:00:00 14,6 13,7 - - 13 7 - - NE 0 0,0
09.08.2020 05:00:00 14,7 13,7 - - 16 9 - - NE 0 0,0
09.08.2020 04:00:00 14,8 13,8 - - 16 9 - - NE 0 0,0
09.08.2020 03:00:00 15,0 13,8 - - 16 9 - - ENE 0 0,0
09.08.2020 02:00:00 15,3 13,8 - - 15 8 - - NE 0 0,0
09.08.2020 01:00:00 15,9 13,9 - - 16 9 - - NE - 0,0
09.08.2020 00:00:00 16,4 14,0 - - 16 9 - - NE 0 0,0
08.08.2020 23:00:00 17,0 13,9 - - 18 10 - - NE 0 0,0
08.08.2020 22:00:00 18,9 13,6 - - 16 9 - - NE 0 0,0
08.08.2020 21:00:00 20,4 13,5 - - 16 9 - - NE 0 0,0
08.08.2020 20:00:00 22,5 14,4 - - 18 10 - - ENE 0 0,0
08.08.2020 19:00:00 24,2 15,6 - - 21 11 - - ENE 36 0,0
08.08.2020 18:00:00 25,6 15,3 - - 18 10 - - E 60 0,0
08.08.2020 17:00:00 26,7 16,1 - - 18 10 - - ENE 60 0,0
08.08.2020 16:00:00 27,3 16,6 - - 16 9 - - ENE 60 0,0
08.08.2020 15:00:00 27,0 16,9 - - 16 9 - - ENE 54 0,0
08.08.2020 14:00:00 27,2 17,9 - - 15 8 - - NE 60 0,0
08.08.2020 13:00:00 25,6 17,5 - - 15 8 - - NE 60 0,0
08.08.2020 12:00:00 24,6 17,5 - - 15 8 - - NE 54 0,0
08.08.2020 11:00:00 22,8 16,5 - - 13 7 - - NNE 60 0,0
08.08.2020 10:00:00 22,6 16,9 18,2 16,2 15 8 - - NE 60 0,0
08.08.2020 09:00:00 20,3 16,4 - - 13 7 - - N 60 0,0
08.08.2020 08:00:00 18,7 15,8 - - 11 6 - - N 60 0,0
08.08.2020 07:00:00 17,6 15,8 - - 9 5 - - NNW 18 0,0
08.08.2020 06:00:00 17,3 16,1 - - 9 5 - - NNW 0 0,0
08.08.2020 05:00:00 17,9 16,4 - - 9 5 - - N 0 0,0
08.08.2020 04:00:00 18,5 16,8 - - 11 6 - - NNW 0 0,0
08.08.2020 03:00:00 19,6 17,3 - - 8 4 - - NW 0 0,0
08.08.2020 02:00:00 20,6 17,0 - - 5 3 - - NNW 0 0,0
08.08.2020 01:00:00 21,1 17,6 - - 5 3 - - NW - 0,0
08.08.2020 00:00:00 21,7 17,5 - - 5 3 - - NNW 0 0,0
07.08.2020 23:00:00 22,1 16,8 - - 5 3 - - NW 0 0,0
07.08.2020 22:00:00 21,8 15,0 - - 2 1 - - WSW 0 0,0
07.08.2020 21:00:00 23,4 14,7 - - 2 1 - - WSW 0 0,0
07.08.2020 20:00:00 26,3 15,0 - - 4 2 - - WSW 0 0,0
07.08.2020 19:00:00 27,5 15,9 - - 4 2 - - WNW 12 0,0
07.08.2020 18:00:00 29,7 15,1 - - 5 3 - - W 30 0,0
07.08.2020 17:00:00 28,0 15,6 - - 5 3 - - W 12 0,0
07.08.2020 16:00:00 28,2 15,9 - - 8 4 - - WNW 6 0,0
07.08.2020 15:00:00 28,7 15,4 - - 9 5 - - W 36 0,0
07.08.2020 14:00:00 28,9 16,8 - - 8 4 - - SSW 42 0,0
07.08.2020 13:00:00 27,2 15,2 - - 9 5 - - SSW 42 0,0
07.08.2020 12:00:00 27,0 15,7 - - 5 3 - - WSW 60 0,0
07.08.2020 11:00:00 25,2 15,3 - - 9 5 - - SSW 60 0,0
07.08.2020 10:00:00 23,9 17,5 17,5 16,2 5 3 - - S 60 0,0
07.08.2020 09:00:00 21,0 17,5 - - 4 2 - - SSW 60 0,0
07.08.2020 08:00:00 17,8 17,4 - - 4 2 - - WSW 60 0,0
07.08.2020 07:00:00 16,2 16,2 - - 2 1 - - S 36 0,0
07.08.2020 06:00:00 14,8 14,7 - - 2 1 - - E 0 0,0
07.08.2020 05:00:00 14,6 14,4 - - 4 2 - - E 0 0,0
07.08.2020 04:00:00 15,4 15,2 - - 2 1 - - S 0 0,0
07.08.2020 03:00:00 15,7 15,3 - - 2 1 - - SSE 0 0,0
07.08.2020 02:00:00 16,1 15,5 - - 4 2 - - S 0 0,0
07.08.2020 01:00:00 16,6 15,9 - - 2 1 - - S - 0,0
07.08.2020 00:00:00 17,6 16,1 - - 0 0 - - N 0 0,0
06.08.2020 23:00:00 19,3 17,0 - - 5 3 - - WSW 0 0,0
06.08.2020 22:00:00 19,9 16,9 - - 4 2 - - SSW 0 0,0
06.08.2020 21:00:00 21,4 17,1 - - 4 2 - - SSW 0 0,0
06.08.2020 20:00:00 22,4 17,5 - - 8 4 - - S 30 0,0
06.08.2020 19:00:00 23,6 18,1 - - 9 5 - - SSW 42 0,0
06.08.2020 18:00:00 22,1 19,4 - - 5 3 - - SSW 0 0,2
06.08.2020 17:00:00 21,6 19,6 - - 4 2 - - WSW 0 1,0
06.08.2020 16:00:00 22,3 19,2 - - 8 4 - - SSW 0 0,0
06.08.2020 15:00:00 22,2 18,6 - - 9 5 - - SSW 0 0,0
06.08.2020 14:00:00 23,2 18,7 - - 11 6 - - SSW 6 0,0
06.08.2020 13:00:00 22,0 16,9 - - 9 5 - - S 0 0,0
06.08.2020 12:00:00 21,4 16,3 - - 11 6 - - S 0 0,0
06.08.2020 11:00:00 20,7 15,7 - - 5 3 - - S 6 0,0
06.08.2020 10:00:00 19,1 15,5 17,4 16,0 8 4 - - SSW 0 0,0
06.08.2020 09:00:00 18,7 15,8 - - 8 4 - - SSW 0 0,0
06.08.2020 08:00:00 17,7 15,3 - - 8 4 - - SW 0 0,0
06.08.2020 07:00:00 17,1 15,3 - - 5 3 - - WSW 0 0,0
06.08.2020 06:00:00 16,7 15,7 - - 4 2 - - SW 0 0,0
06.08.2020 05:00:00 17,1 15,8 - - 8 4 - - SSW 0 0,0
06.08.2020 04:00:00 17,1 15,9 - - 5 3 - - SW 0 0,0
06.08.2020 03:00:00 17,0 15,9 - - 9 5 - - SW 0 0,0
06.08.2020 02:00:00 17,2 15,8 - - 5 3 - - SSW 0 0,0
06.08.2020 01:00:00 17,6 15,9 - - 9 5 - - SW - 0,0
06.08.2020 00:00:00 17,9 16,2 - - 8 4 - - SSW 0 0,0
05.08.2020 23:00:00 17,9 16,0 - - 8 4 - - S 0 0,0
05.08.2020 22:00:00 18,3 15,7 - - 11 6 - - S 0 0,0
05.08.2020 21:00:00 19,2 15,3 - - 11 6 - - SSW 0 0,0
05.08.2020 20:00:00 19,7 15,2 - - 15 8 - - SSW 0 0,0
05.08.2020 19:00:00 20,0 14,9 - - 16 9 - - SSW 0 0,0
05.08.2020 18:00:00 20,7 14,4 - - 16 9 - - SSW 0 0,0
05.08.2020 17:00:00 21,5 14,1 - - 18 10 - - SSW 0 0,0
05.08.2020 16:00:00 21,3 14,0 - - 15 8 - - SSW 0 0,0
05.08.2020 15:00:00 21,5 14,5 - - 15 8 - - SSW 0 0,0
05.08.2020 14:00:00 20,9 14,8 - - 16 9 48 26 S 6 0,0
05.08.2020 13:00:00 21,8 14,1 - - 18 10 - - SSW 0 0,0
05.08.2020 12:00:00 21,6 14,8 - - 13 7 - - SW 6 0,0
05.08.2020 11:00:00 21,0 14,8 - - 15 8 - - SSW 30 0,0
05.08.2020 10:00:00 20,7 14,9 17,0 16,2 18 10 - - SW 36 0,0
05.08.2020 09:00:00 18,3 14,6 - - 15 8 - - SSW 0 0,0
05.08.2020 08:00:00 17,5 14,6 - - 15 8 - - SSW 0 0,0
05.08.2020 07:00:00 17,0 14,4 - - 9 5 - - SSW 24 0,0
05.08.2020 06:00:00 16,3 14,3 - - 11 6 - - SSW 0 0,0
05.08.2020 05:00:00 16,1 14,0 - - 9 5 - - SSW 0 0,0
05.08.2020 04:00:00 16,2 14,0 - - 13 7 - - SSW 0 0,0
05.08.2020 03:00:00 16,5 13,8 - - 18 10 - - SSW 0 0,0
05.08.2020 02:00:00 16,6 13,5 - - 18 10 - - SW 0 0,0
05.08.2020 01:00:00 16,9 13,5 - - 16 9 - - SSW - 0,0
05.08.2020 00:00:00 17,1 13,3 - - 16 9 - - SSW 0 0,0
04.08.2020 23:00:00 17,5 13,2 - - 15 8 - - SW 0 0,0
04.08.2020 22:00:00 17,9 12,9 - - 16 9 - - SW 0 0,0
04.08.2020 21:00:00 18,2 12,7 - - 16 9 - - SW 0 0,0
04.08.2020 20:00:00 18,8 11,7 - - 21 11 - - SW 0 0,0
04.08.2020 19:00:00 19,4 11,7 - - 15 8 - - SW 0 0,0
04.08.2020 18:00:00 19,7 10,8 - - 16 9 46 25 SW 12 0,0
04.08.2020 17:00:00 20,8 10,1 - - 18 10 - - SSW 48 0,0
04.08.2020 16:00:00 19,3 9,6 - - 16 9 - - SSW 6 0,0
04.08.2020 15:00:00 18,2 7,2 - - 15 8 - - SSW 0 0,0
04.08.2020 14:00:00 17,8 8,5 - - 15 8 - - SSW 0 0,0
04.08.2020 13:00:00 17,0 8,2 - - 11 6 - - SSW 0 0,0
04.08.2020 12:00:00 16,1 8,1 - - 9 5 - - SW 0 0,0
04.08.2020 11:00:00 14,4 7,6 - - 11 6 - - SW 0 0,0
04.08.2020 10:00:00 15,4 8,5 17,0 16,2 8 4 - - SSW 6 0,0
04.08.2020 09:00:00 15,0 8,6 - - 8 4 - - SSW 18 0,0
04.08.2020 08:00:00 13,9 9,4 - - 4 2 - - S 42 0,0
04.08.2020 07:00:00 10,9 7,8 - - 4 2 - - W 18 0,0
04.08.2020 06:00:00 7,9 6,8 - - 2 1 - - S 0 0,0
04.08.2020 05:00:00 8,0 6,2 - - 2 1 - - W 0 0,0
04.08.2020 04:00:00 7,8 6,2 - - 4 2 - - W 0 0,0
04.08.2020 03:00:00 8,6 6,4 - - 2 1 - - WNW 0 0,0
04.08.2020 02:00:00 9,6 6,6 - - 4 2 - - WNW 0 0,0
04.08.2020 01:00:00 10,7 6,7 - - 5 3 - - NNW - 0,0
04.08.2020 00:00:00 11,9 6,5 - - 8 4 - - NW 0 0,0

tt = Température de l'air
td = dewpoint
tt -20cm = Température de l'air -20cm
tt -100cm = Température de l'air -100cm
ff = Vitesse du vent
fx = gusts
dd = Direction du vent
sd = Ensoleillement
rr = Quantités de précipitations

stations d'obs. à proximité